createdAt,value
2022-10-01T00:00:50.773Z,96656.72
2022-10-01T00:04:47.927Z,96685.00
2022-10-01T00:08:49.047Z,96679.88
2022-10-01T00:12:49.658Z,96673.59
2022-10-01T00:16:46.759Z,96680.53
2022-10-01T00:20:43.882Z,96682.16
2022-10-01T00:24:40.968Z,96657.41
2022-10-01T00:28:37.947Z,96655.31
2022-10-01T00:32:34.903Z,96676.88
2022-10-01T00:36:33.110Z,96669.13
2022-10-01T00:40:30.123Z,96663.28
2022-10-01T00:44:37.604Z,96671.19
2022-10-01T00:48:50.638Z,96676.25
2022-10-01T00:52:56.831Z,96662.09
2022-10-01T00:56:58.276Z,96670.47
2022-10-01T01:00:57.461Z,96677.56
2022-10-01T01:04:54.441Z,96651.63
2022-10-01T01:08:55.228Z,96665.50
2022-10-01T01:13:17.323Z,96664.22
2022-10-01T01:17:25.960Z,96645.69
2022-10-01T01:21:36.872Z,96663.41
2022-10-01T01:26:07.390Z,96651.75
2022-10-01T01:30:15.373Z,96646.19
2022-10-01T01:34:20.551Z,96630.00
2022-10-01T01:38:29.078Z,96647.13
2022-10-01T01:42:37.322Z,96634.28
2022-10-01T01:46:40.400Z,96605.38
2022-10-01T01:51:14.628Z,96633.97
2022-10-01T01:55:11.726Z,96620.78
2022-10-01T01:59:09.494Z,96632.53
2022-10-01T02:03:07.724Z,96630.91
2022-10-01T02:07:56.952Z,96625.66
2022-10-01T02:12:35.757Z,96631.06
2022-10-01T02:17:01.550Z,96625.94
2022-10-01T02:21:18.681Z,96628.34
2022-10-01T02:25:23.012Z,96624.66
2022-10-01T02:29:24.004Z,96622.06
2022-10-01T02:33:29.151Z,96623.97
2022-10-01T02:37:28.391Z,96617.38
2022-10-01T02:41:35.874Z,96606.94
2022-10-01T02:45:37.817Z,96605.16
2022-10-01T02:49:37.654Z,96608.53
2022-10-01T02:53:53.765Z,96615.06
2022-10-01T02:57:50.885Z,96621.16
2022-10-01T03:01:48.383Z,96604.63
2022-10-01T03:05:45.625Z,96618.69
2022-10-01T03:09:42.995Z,96603.56
2022-10-01T03:13:40.269Z,96601.56
2022-10-01T03:17:38.080Z,96588.94
2022-10-01T03:21:35.521Z,96602.22
2022-10-01T03:25:32.800Z,96578.69
2022-10-01T03:29:29.916Z,96599.25
2022-10-01T03:33:26.910Z,96588.31
2022-10-01T03:37:23.924Z,96589.19
2022-10-01T03:41:21.117Z,96576.66
2022-10-01T03:45:18.094Z,96596.50
2022-10-01T03:49:15.146Z,96558.09
2022-10-01T03:53:12.482Z,96576.41
2022-10-01T03:57:09.484Z,96588.75
2022-10-01T04:01:06.532Z,96561.72
2022-10-01T04:05:03.845Z,96552.50
2022-10-01T04:09:00.974Z,96559.31
2022-10-01T04:12:58.018Z,96554.19
2022-10-01T04:16:55.002Z,96559.72
2022-10-01T04:20:52.428Z,96549.00
2022-10-01T04:24:49.532Z,96545.09
2022-10-01T04:28:46.992Z,96547.88
2022-10-01T04:32:43.976Z,96550.47
2022-10-01T04:36:40.938Z,96542.84
2022-10-01T04:40:38.361Z,96550.19
2022-10-01T04:44:35.512Z,96545.59
2022-10-01T04:48:32.516Z,96534.31
2022-10-01T04:52:29.560Z,96558.41
2022-10-01T04:56:26.565Z,96559.97
2022-10-01T05:00:26.486Z,96549.34
2022-10-01T05:04:24.022Z,96559.38
2022-10-01T05:08:22.633Z,96552.00
2022-10-01T05:12:24.324Z,96540.53
2022-10-01T05:16:21.817Z,96518.28
2022-10-01T05:20:27.229Z,96537.72
2022-10-01T05:24:24.270Z,96555.31
2022-10-01T05:28:22.640Z,96554.16
2022-10-01T05:32:20.244Z,96557.00
2022-10-01T05:36:17.253Z,96564.91
2022-10-01T05:40:14.394Z,96557.91
2022-10-01T05:44:11.373Z,96552.66
2022-10-01T05:48:09.568Z,96565.88
2022-10-01T05:52:07.754Z,96574.44
2022-10-01T05:56:07.564Z,96565.78
2022-10-01T06:00:05.958Z,96561.41
2022-10-01T06:04:10.930Z,96552.84
2022-10-01T06:08:09.918Z,96557.13
2022-10-01T06:12:09.875Z,96557.97
2022-10-01T06:16:10.177Z,96567.66
2022-10-01T06:20:07.620Z,96524.41
2022-10-01T06:24:05.319Z,96541.81
2022-10-01T06:28:02.725Z,96529.84
2022-10-01T06:32:00.448Z,96540.72
2022-10-01T06:35:57.462Z,96520.75
2022-10-01T06:39:54.426Z,96521.91
2022-10-01T06:43:51.430Z,96532.88
2022-10-01T06:47:55.928Z,96534.75
2022-10-01T06:52:12.182Z,96505.97
2022-10-01T06:56:10.222Z,96514.72
2022-10-01T07:00:08.179Z,96510.69
2022-10-01T07:04:05.153Z,96507.28
2022-10-01T07:08:02.361Z,96509.16
2022-10-01T07:11:59.375Z,96507.81
2022-10-01T07:15:56.537Z,96492.34
2022-10-01T07:19:53.628Z,96504.03
2022-10-01T07:23:50.581Z,96498.44
2022-10-01T07:27:47.574Z,96494.44
2022-10-01T07:31:44.832Z,96493.28
2022-10-01T07:35:41.839Z,96511.38
2022-10-01T07:39:38.792Z,96509.63
2022-10-01T07:43:36.652Z,96506.59
2022-10-01T07:47:33.683Z,96488.81
2022-10-01T07:51:31.147Z,96495.91
2022-10-01T07:55:30.891Z,96499.94
2022-10-01T07:59:27.899Z,96470.34
2022-10-01T08:03:25.595Z,96487.81
2022-10-01T08:07:22.732Z,96494.09
2022-10-01T08:11:19.717Z,96462.22
2022-10-01T08:15:18.175Z,96476.50
2022-10-01T08:19:15.947Z,96495.28
2022-10-01T08:23:15.884Z,96487.66
2022-10-01T08:27:12.915Z,96475.03
2022-10-01T08:31:10.172Z,96452.56
2022-10-01T08:35:07.849Z,96460.94
2022-10-01T08:39:04.862Z,96468.53
2022-10-01T08:43:11.416Z,96480.38
2022-10-01T08:47:19.538Z,96478.31
2022-10-01T08:51:51.384Z,96487.16
2022-10-01T08:55:52.014Z,96505.06
2022-10-01T08:59:54.464Z,96491.59
2022-10-01T09:03:53.128Z,96500.91
2022-10-01T09:08:55.745Z,96505.19
2022-10-01T09:13:18.772Z,96522.41
2022-10-01T09:17:48.293Z,96494.53
2022-10-01T09:21:57.444Z,96507.09
2022-10-01T09:25:57.305Z,96489.53
2022-10-01T09:30:23.671Z,96494.16
2022-10-01T09:34:38.000Z,96482.16
2022-10-01T09:38:43.048Z,96483.91
2022-10-01T09:42:40.176Z,96484.53
2022-10-01T09:46:37.191Z,96456.47
2022-10-01T09:50:43.896Z,96462.97
2022-10-01T09:54:56.650Z,96424.31
2022-10-01T09:59:01.952Z,96450.22
2022-10-01T10:02:59.202Z,96444.06
2022-10-01T10:07:05.228Z,96431.97
2022-10-01T10:11:08.550Z,96432.41
2022-10-01T10:15:26.418Z,96443.22
2022-10-01T10:19:31.152Z,96407.41
2022-10-01T10:23:31.513Z,96381.94
2022-10-01T10:27:30.657Z,96390.56
2022-10-01T10:31:38.379Z,96399.22
2022-10-01T10:35:36.260Z,96381.34
2022-10-01T10:39:40.074Z,96388.69
2022-10-01T10:43:38.355Z,96376.16
2022-10-01T10:47:48.902Z,96380.31
2022-10-01T10:51:55.961Z,96383.63
2022-10-01T10:56:02.699Z,96375.00
2022-10-01T11:00:21.194Z,96379.97
2022-10-01T11:04:38.379Z,96336.25
2022-10-01T11:08:35.962Z,96324.50
2022-10-01T11:13:29.351Z,96363.63
2022-10-01T11:17:58.097Z,96349.88
2022-10-01T11:22:31.187Z,96348.84
2022-10-01T11:26:44.813Z,96361.75
2022-10-01T11:31:51.039Z,96363.78
2022-10-01T11:36:03.347Z,96349.78
2022-10-01T11:40:15.387Z,96356.81
2022-10-01T11:44:34.229Z,96359.72
2022-10-01T11:48:38.329Z,96352.63
2022-10-01T11:52:49.327Z,96342.13
2022-10-01T11:57:14.385Z,96359.47
2022-10-01T12:01:34.861Z,96349.00
2022-10-01T12:05:34.492Z,96360.81
2022-10-01T12:10:11.502Z,96370.28
2022-10-01T12:14:20.192Z,96360.00
2022-10-01T12:18:27.344Z,96361.03
2022-10-01T12:22:39.651Z,96370.59
2022-10-01T12:27:20.449Z,96370.66
2022-10-01T12:31:33.481Z,96362.91
2022-10-01T12:36:04.119Z,96366.25
2022-10-01T12:40:30.610Z,96375.13
2022-10-01T12:45:24.735Z,96367.91
2022-10-01T12:49:29.612Z,96368.31
2022-10-01T12:54:00.520Z,96353.75
2022-10-01T12:58:36.295Z,96359.69
2022-10-01T13:02:46.654Z,96354.53
2022-10-01T13:07:27.329Z,96365.06
2022-10-01T13:11:40.152Z,96367.16
2022-10-01T13:15:49.600Z,96375.59
2022-10-01T13:20:01.151Z,96356.13
2022-10-01T13:24:38.349Z,96365.47
2022-10-01T13:29:07.966Z,96363.28
2022-10-01T13:33:26.382Z,96357.03
2022-10-01T13:37:39.957Z,96355.19
2022-10-01T13:41:40.125Z,96359.16
2022-10-01T13:45:47.824Z,96367.34
2022-10-01T13:50:00.577Z,96373.44
2022-10-01T13:54:03.064Z,96355.56
2022-10-01T13:58:30.205Z,96344.88
2022-10-01T14:03:02.136Z,96383.59
2022-10-01T14:07:23.810Z,96366.25
2022-10-01T14:11:45.672Z,96370.38
2022-10-01T14:16:00.320Z,96347.97
2022-10-01T14:19:59.975Z,96370.84
2022-10-01T14:24:19.050Z,96374.19
2022-10-01T14:28:36.375Z,96331.28
2022-10-01T14:33:31.513Z,96376.28
2022-10-01T14:37:30.313Z,96366.72
2022-10-01T14:41:27.466Z,96341.03
2022-10-01T14:45:24.837Z,96369.44
2022-10-01T14:49:27.865Z,96357.09
2022-10-01T14:53:29.254Z,96370.94
2022-10-01T14:57:42.232Z,96378.53
2022-10-01T15:01:39.258Z,96379.66
2022-10-01T15:05:37.536Z,96373.16
2022-10-01T15:09:34.956Z,96363.53
2022-10-01T15:13:38.701Z,96352.09
2022-10-01T15:17:36.429Z,96377.28
2022-10-01T15:21:40.443Z,96340.16
2022-10-01T15:25:37.604Z,96372.59
2022-10-01T15:29:35.576Z,96383.94
2022-10-01T15:33:40.508Z,96360.88
2022-10-01T15:37:39.349Z,96390.53
2022-10-01T15:41:37.838Z,96377.56
2022-10-01T15:45:35.985Z,96393.06
2022-10-01T15:49:33.537Z,96424.91
2022-10-01T15:53:32.725Z,96385.72
2022-10-01T15:57:33.642Z,96403.16
2022-10-01T16:01:40.496Z,96414.50
2022-10-01T16:05:47.349Z,96392.47
2022-10-01T16:10:00.320Z,96418.25
2022-10-01T16:14:20.836Z,96376.34
2022-10-01T16:18:22.682Z,96421.75
2022-10-01T16:22:34.156Z,96415.03
2022-10-01T16:26:37.105Z,96416.22
2022-10-01T16:30:34.612Z,96420.00
2022-10-01T16:34:31.747Z,96435.31
2022-10-01T16:38:28.790Z,96434.34
2022-10-01T16:42:25.780Z,96433.78
2022-10-01T16:46:25.944Z,96455.25
2022-10-01T16:50:24.254Z,96462.66
2022-10-01T16:54:26.741Z,96442.84
2022-10-01T16:58:24.788Z,96462.41
2022-10-01T17:02:21.907Z,96460.22
2022-10-01T17:06:19.020Z,96474.00
2022-10-01T17:10:18.663Z,96478.81
2022-10-01T17:14:19.683Z,96480.88
2022-10-01T17:18:18.953Z,96500.81
2022-10-01T17:22:16.571Z,96483.88
2022-10-01T17:26:13.591Z,96514.00
2022-10-01T17:30:11.176Z,96496.47
2022-10-01T17:34:08.415Z,96516.69
2022-10-01T17:38:05.542Z,96493.50
2022-10-01T17:42:02.978Z,96514.03
2022-10-01T17:46:01.365Z,96513.50
2022-10-01T17:49:58.750Z,96520.97
2022-10-01T17:53:56.456Z,96545.38
2022-10-01T17:57:53.509Z,96527.69
2022-10-01T18:01:52.813Z,96528.94
2022-10-01T18:05:51.088Z,96527.38
2022-10-01T18:09:48.301Z,96541.72
2022-10-01T18:13:45.894Z,96533.47
2022-10-01T18:17:43.782Z,96528.78
2022-10-01T18:21:48.576Z,96548.91
2022-10-01T18:25:45.592Z,96519.53
2022-10-01T18:29:42.706Z,96544.47
2022-10-01T18:33:55.260Z,96581.28
2022-10-01T18:37:56.270Z,96660.75
2022-10-01T18:41:53.579Z,96674.19
2022-10-01T18:46:48.855Z,96645.72
2022-10-01T18:51:52.051Z,96626.69
2022-10-01T18:56:19.874Z,96626.16
2022-10-01T19:00:23.590Z,96649.78
2022-10-01T19:04:41.174Z,96666.41
2022-10-01T19:09:20.518Z,96634.63
2022-10-01T19:13:38.651Z,96637.41
2022-10-01T19:18:27.086Z,96669.28
2022-10-01T19:22:42.572Z,96666.78
2022-10-01T19:27:09.632Z,96661.41
2022-10-01T19:31:24.272Z,96660.94
2022-10-01T19:35:27.751Z,96679.81
2022-10-01T19:39:32.258Z,96680.13
2022-10-01T19:44:07.265Z,96674.22
2022-10-01T19:48:24.702Z,96713.50
2022-10-01T19:52:25.262Z,96716.53
2022-10-01T19:56:34.707Z,96707.88
2022-10-01T20:00:34.671Z,96710.03
2022-10-01T20:04:45.712Z,96751.22
2022-10-01T20:09:14.613Z,96773.47
2022-10-01T20:13:47.889Z,96782.34
2022-10-01T20:18:14.700Z,96795.59
2022-10-01T20:22:48.294Z,96793.97
2022-10-01T20:26:50.984Z,96805.47
2022-10-01T20:30:58.736Z,96807.13
2022-10-01T20:35:27.736Z,96821.34
2022-10-01T20:39:38.406Z,96812.72
2022-10-01T20:43:51.031Z,96809.97
2022-10-01T20:47:58.907Z,96764.63
2022-10-01T20:51:55.908Z,96834.78
2022-10-01T20:56:04.469Z,96820.56
2022-10-01T21:00:19.143Z,96816.69
2022-10-01T21:04:26.464Z,96806.19
2022-10-01T21:08:46.775Z,96807.53
2022-10-01T21:12:57.834Z,96829.59
2022-10-01T21:17:08.776Z,96838.16
2022-10-01T21:21:32.736Z,96918.28
2022-10-01T21:25:50.713Z,96907.13
2022-10-01T21:30:11.935Z,96920.06
2022-10-01T21:34:28.453Z,96894.56
2022-10-01T21:40:40.192Z,96902.22
2022-10-01T21:44:52.022Z,96909.34
2022-10-01T21:49:27.261Z,96902.38
2022-10-01T21:53:35.951Z,96900.22
2022-10-01T21:57:56.622Z,96903.16
2022-10-01T22:02:26.990Z,96910.84
2022-10-01T22:06:55.973Z,96891.56
2022-10-01T22:11:00.689Z,96867.91
2022-10-01T22:15:00.661Z,96908.00
2022-10-01T22:19:06.865Z,96927.25
2022-10-01T22:23:17.697Z,96913.59
2022-10-01T22:27:25.004Z,96934.31
2022-10-01T22:31:34.095Z,96948.22
2022-10-01T22:35:55.410Z,96960.19
2022-10-01T22:40:13.575Z,96969.00
2022-10-01T22:44:22.234Z,96963.88
2022-10-01T22:49:06.336Z,96966.00
2022-10-01T22:53:33.491Z,96963.34
2022-10-01T22:57:56.793Z,96956.19
2022-10-01T23:02:00.379Z,96974.53
2022-10-01T23:06:36.816Z,96981.09
2022-10-01T23:10:59.115Z,96978.72
2022-10-01T23:15:18.691Z,96948.53
2022-10-01T23:19:42.474Z,96999.94
2022-10-01T23:23:45.796Z,96995.41
2022-10-01T23:28:22.605Z,97006.34
2022-10-01T23:32:43.784Z,97013.84
2022-10-01T23:37:08.050Z,97013.25
2022-10-01T23:41:39.319Z,96999.94
2022-10-01T23:45:51.856Z,97010.06
2022-10-01T23:49:56.069Z,97019.00
2022-10-01T23:54:42.159Z,97026.75
2022-10-01T23:58:48.904Z,97013.03
